sensor_id;sensor_type;location;lat;lon;timestamp;pressure;altitude;pressure_sealevel;temperature;humidity
13593;BME280;6867;50.998;4.250;2023-06-10T00:01:14;100929.03;;;21.91;56.30
13593;BME280;6867;50.998;4.250;2023-06-10T00:03:41;100937.22;;;21.85;56.54
13593;BME280;6867;50.998;4.250;2023-06-10T00:06:08;100937.25;;;21.80;56.89
13593;BME280;6867;50.998;4.250;2023-06-10T00:08:35;100942.72;;;21.80;56.86
13593;BME280;6867;50.998;4.250;2023-06-10T00:11:04;100954.47;;;21.76;57.25
13593;BME280;6867;50.998;4.250;2023-06-10T00:13:30;100950.94;;;21.75;57.51
13593;BME280;6867;50.998;4.250;2023-06-10T00:15:57;100937.28;;;21.70;57.47
13593;BME280;6867;50.998;4.250;2023-06-10T00:18:24;100932.66;;;21.60;57.44
13593;BME280;6867;50.998;4.250;2023-06-10T00:20:52;100933.78;;;21.54;57.34
13593;BME280;6867;50.998;4.250;2023-06-10T00:23:20;100944.44;;;21.51;57.59
13593;BME280;6867;50.998;4.250;2023-06-10T00:25:47;100939.00;;;21.41;57.86
13593;BME280;6867;50.998;4.250;2023-06-10T00:28:15;100940.59;;;21.31;57.88
13593;BME280;6867;50.998;4.250;2023-06-10T00:30:42;100933.81;;;21.34;57.77
13593;BME280;6867;50.998;4.250;2023-06-10T00:33:09;100940.88;;;21.30;57.74
13593;BME280;6867;50.998;4.250;2023-06-10T00:35:35;100941.16;;;21.28;57.95
13593;BME280;6867;50.998;4.250;2023-06-10T00:38:02;100932.41;;;21.26;57.66
13593;BME280;6867;50.998;4.250;2023-06-10T00:40:29;100932.94;;;21.23;57.69
13593;BME280;6867;50.998;4.250;2023-06-10T00:42:55;100949.63;;;21.22;58.52
13593;BME280;6867;50.998;4.250;2023-06-10T00:45:23;100973.69;;;21.20;59.13
13593;BME280;6867;50.998;4.250;2023-06-10T00:47:50;100978.03;;;21.10;59.57
13593;BME280;6867;50.998;4.250;2023-06-10T00:50:17;100975.59;;;21.04;59.64
13593;BME280;6867;50.998;4.250;2023-06-10T00:52:44;100983.22;;;20.92;60.23
13593;BME280;6867;50.998;4.250;2023-06-10T00:55:14;100988.06;;;20.69;60.78
13593;BME280;6867;50.998;4.250;2023-06-10T00:57:42;100976.91;;;20.66;60.85
13593;BME280;6867;50.998;4.250;2023-06-10T01:00:10;100982.63;;;20.64;60.74
13593;BME280;6867;50.998;4.250;2023-06-10T01:02:39;100960.28;;;20.87;60.19
13593;BME280;6867;50.998;4.250;2023-06-10T01:05:06;100959.72;;;20.75;60.28
13593;BME280;6867;50.998;4.250;2023-06-10T01:07:38;100971.97;;;20.62;60.72
13593;BME280;6867;50.998;4.250;2023-06-10T01:10:16;100971.97;;;20.68;60.85
13593;BME280;6867;50.998;4.250;2023-06-10T01:12:48;100972.78;;;20.53;61.23
13593;BME280;6867;50.998;4.250;2023-06-10T01:15:19;100972.50;;;20.49;61.37
13593;BME280;6867;50.998;4.250;2023-06-10T01:17:56;100971.09;;;20.47;61.52
13593;BME280;6867;50.998;4.250;2023-06-10T01:20:23;100974.34;;;20.44;61.63
13593;BME280;6867;50.998;4.250;2023-06-10T01:22:53;100969.16;;;20.42;61.93
13593;BME280;6867;50.998;4.250;2023-06-10T01:25:21;100960.69;;;20.38;61.36
13593;BME280;6867;50.998;4.250;2023-06-10T01:27:54;100959.06;;;20.37;61.24
13593;BME280;6867;50.998;4.250;2023-06-10T01:30:27;100958.78;;;20.34;61.32
13593;BME280;6867;50.998;4.250;2023-06-10T01:32:58;100974.56;;;20.27;61.78
13593;BME280;6867;50.998;4.250;2023-06-10T01:35:27;100966.94;;;20.24;62.02
13593;BME280;6867;50.998;4.250;2023-06-10T01:37:58;100971.53;;;20.18;62.07
13593;BME280;6867;50.998;4.250;2023-06-10T01:40:26;100971.00;;;20.16;62.36
13593;BME280;6867;50.998;4.250;2023-06-10T01:42:54;100980.50;;;20.13;62.48
13593;BME280;6867;50.998;4.250;2023-06-10T01:45:21;100973.13;;;20.09;62.58
13593;BME280;6867;50.998;4.250;2023-06-10T01:47:47;100973.66;;;20.06;62.72
13593;BME280;6867;50.998;4.250;2023-06-10T01:50:14;100979.09;;;20.06;62.94
13593;BME280;6867;50.998;4.250;2023-06-10T01:52:41;100986.19;;;20.02;63.17
13593;BME280;6867;50.998;4.250;2023-06-10T01:55:09;100984.81;;;19.99;63.45
13593;BME280;6867;50.998;4.250;2023-06-10T01:57:36;100993.50;;;19.91;63.80
13593;BME280;6867;50.998;4.250;2023-06-10T02:00:03;100993.75;;;19.89;63.59
13593;BME280;6867;50.998;4.250;2023-06-10T02:02:30;100985.53;;;19.84;63.88
13593;BME280;6867;50.998;4.250;2023-06-10T02:04:57;100988.78;;;19.81;64.11
13593;BME280;6867;50.998;4.250;2023-06-10T02:07:24;100989.34;;;19.78;64.01
13593;BME280;6867;50.998;4.250;2023-06-10T02:09:50;100986.03;;;19.76;64.20
13593;BME280;6867;50.998;4.250;2023-06-10T02:12:18;100980.28;;;19.73;64.04
13593;BME280;6867;50.998;4.250;2023-06-10T02:14:45;100977.00;;;19.65;63.68
13593;BME280;6867;50.998;4.250;2023-06-10T02:17:11;100967.16;;;19.64;63.78
13593;BME280;6867;50.998;4.250;2023-06-10T02:19:40;100976.09;;;19.60;63.85
13593;BME280;6867;50.998;4.250;2023-06-10T02:22:08;100974.75;;;19.57;64.34
13593;BME280;6867;50.998;4.250;2023-06-10T02:24:35;100977.78;;;19.61;64.00
13593;BME280;6867;50.998;4.250;2023-06-10T02:27:04;100982.63;;;19.59;64.29
13593;BME280;6867;50.998;4.250;2023-06-10T02:29:33;100978.28;;;19.58;64.47
13593;BME280;6867;50.998;4.250;2023-06-10T02:32:01;100994.31;;;19.54;64.66
13593;BME280;6867;50.998;4.250;2023-06-10T02:34:28;100992.91;;;19.47;64.78
13593;BME280;6867;50.998;4.250;2023-06-10T02:36:55;100992.56;;;19.38;64.93
13593;BME280;6867;50.998;4.250;2023-06-10T02:39:21;100991.13;;;19.30;64.96
13593;BME280;6867;50.998;4.250;2023-06-10T02:41:48;100994.41;;;19.27;65.09
13593;BME280;6867;50.998;4.250;2023-06-10T02:44:15;100995.75;;;19.25;65.21
13593;BME280;6867;50.998;4.250;2023-06-10T02:46:43;101000.88;;;19.21;65.46
13593;BME280;6867;50.998;4.250;2023-06-10T02:49:09;100998.59;;;19.08;65.64
13593;BME280;6867;50.998;4.250;2023-06-10T02:51:36;101002.63;;;19.05;65.77
13593;BME280;6867;50.998;4.250;2023-06-10T02:54:03;100998.59;;;19.08;66.06
13593;BME280;6867;50.998;4.250;2023-06-10T02:56:30;101007.25;;;19.05;66.13
13593;BME280;6867;50.998;4.250;2023-06-10T02:58:56;101001.00;;;19.04;66.39
13593;BME280;6867;50.998;4.250;2023-06-10T03:01:23;101013.78;;;19.04;66.36
13593;BME280;6867;50.998;4.250;2023-06-10T03:03:51;101023.28;;;19.01;66.62
13593;BME280;6867;50.998;4.250;2023-06-10T03:06:18;101017.03;;;19.01;66.57
13593;BME280;6867;50.998;4.250;2023-06-10T03:08:45;101022.75;;;18.99;67.25
13593;BME280;6867;50.998;4.250;2023-06-10T03:11:11;101010.91;;;19.15;66.77
13593;BME280;6867;50.998;4.250;2023-06-10T03:13:38;101007.13;;;19.22;66.26
13593;BME280;6867;50.998;4.250;2023-06-10T03:16:06;101007.13;;;19.22;66.49
13593;BME280;6867;50.998;4.250;2023-06-10T03:18:33;101008.19;;;19.15;66.70
13593;BME280;6867;50.998;4.250;2023-06-10T03:21:01;101014.72;;;19.14;66.70
13593;BME280;6867;50.998;4.250;2023-06-10T03:23:28;101011.50;;;19.23;66.54
13593;BME280;6867;50.998;4.250;2023-06-10T03:25:55;101010.22;;;19.30;66.44
13593;BME280;6867;50.998;4.250;2023-06-10T03:28:21;101002.09;;;19.35;66.34
13593;BME280;6867;50.998;4.250;2023-06-10T03:30:48;101008.06;;;19.32;66.28
13593;BME280;6867;50.998;4.250;2023-06-10T03:33:15;101008.91;;;19.38;66.19
13593;BME280;6867;50.998;4.250;2023-06-10T03:35:41;101014.41;;;19.43;66.25
13593;BME280;6867;50.998;4.250;2023-06-10T03:38:09;101014.47;;;19.48;66.26
13593;BME280;6867;50.998;4.250;2023-06-10T03:40:36;101009.03;;;19.53;65.98
13593;BME280;6867;50.998;4.250;2023-06-10T03:43:02;101005.25;;;19.59;65.72
13593;BME280;6867;50.998;4.250;2023-06-10T03:45:29;101013.13;;;19.56;65.70
13593;BME280;6867;50.998;4.250;2023-06-10T03:47:57;101010.94;;;19.53;65.90
13593;BME280;6867;50.998;4.250;2023-06-10T03:50:24;101017.75;;;19.55;66.12
13593;BME280;6867;50.998;4.250;2023-06-10T03:52:51;101017.25;;;19.58;65.92
13593;BME280;6867;50.998;4.250;2023-06-10T03:55:19;101017.56;;;19.62;66.19
13593;BME280;6867;50.998;4.250;2023-06-10T03:57:47;101024.66;;;19.63;66.19
13593;BME280;6867;50.998;4.250;2023-06-10T04:00:15;101027.13;;;19.64;66.21
13593;BME280;6867;50.998;4.250;2023-06-10T04:02:43;101027.38;;;19.63;66.33
13593;BME280;6867;50.998;4.250;2023-06-10T04:05:13;101023.06;;;19.67;66.37
13593;BME280;6867;50.998;4.250;2023-06-10T04:07:40;101031.59;;;19.81;66.36
13593;BME280;6867;50.998;4.250;2023-06-10T04:10:08;101028.38;;;19.89;66.12
13593;BME280;6867;50.998;4.250;2023-06-10T04:12:37;101015.34;;;20.01;65.69
13593;BME280;6867;50.998;4.250;2023-06-10T04:15:05;101024.41;;;20.07;65.50
13593;BME280;6867;50.998;4.250;2023-06-10T04:17:32;101028.50;;;20.09;65.53
13593;BME280;6867;50.998;4.250;2023-06-10T04:19:59;101025.25;;;20.18;65.10
13593;BME280;6867;50.998;4.250;2023-06-10T04:22:25;101026.13;;;20.28;64.79
13593;BME280;6867;50.998;4.250;2023-06-10T04:24:52;101028.06;;;20.33;65.09
13593;BME280;6867;50.998;4.250;2023-06-10T04:27:19;101040.63;;;20.34;64.81
13593;BME280;6867;50.998;4.250;2023-06-10T04:29:47;101041.13;;;20.31;65.06
13593;BME280;6867;50.998;4.250;2023-06-10T04:32:13;101043.34;;;20.34;65.06
13593;BME280;6867;50.998;4.250;2023-06-10T04:34:40;101040.72;;;20.49;64.66
13593;BME280;6867;50.998;4.250;2023-06-10T04:37:07;101052.47;;;20.55;65.11
13593;BME280;6867;50.998;4.250;2023-06-10T04:39:34;101051.13;;;20.57;64.74
13593;BME280;6867;50.998;4.250;2023-06-10T04:42:01;101048.69;;;20.71;64.58
13593;BME280;6867;50.998;4.250;2023-06-10T04:44:27;101041.63;;;20.85;64.03
13593;BME280;6867;50.998;4.250;2023-06-10T04:46:57;101042.75;;;21.10;63.69
13593;BME280;6867;50.998;4.250;2023-06-10T04:49:24;101037.03;;;21.22;63.37
13593;BME280;6867;50.998;4.250;2023-06-10T04:51:51;101034.88;;;21.24;63.29
13593;BME280;6867;50.998;4.250;2023-06-10T04:54:17;101035.94;;;21.23;63.08
13593;BME280;6867;50.998;4.250;2023-06-10T04:56:44;101032.44;;;21.37;63.04
13593;BME280;6867;50.998;4.250;2023-06-10T04:59:10;101034.09;;;21.49;62.86
13593;BME280;6867;50.998;4.250;2023-06-10T05:01:37;101034.34;;;21.52;62.77
13593;BME280;6867;50.998;4.250;2023-06-10T05:04:05;101021.75;;;21.67;62.05
13593;BME280;6867;50.998;4.250;2023-06-10T05:06:32;101022.84;;;21.76;61.76
13593;BME280;6867;50.998;4.250;2023-06-10T05:08:58;101036.75;;;21.84;62.27
13593;BME280;6867;50.998;4.250;2023-06-10T05:11:25;101022.25;;;21.99;61.79
13593;BME280;6867;50.998;4.250;2023-06-10T05:13:52;101017.56;;;22.10;61.35
13593;BME280;6867;50.998;4.250;2023-06-10T05:16:18;101008.78;;;22.28;60.70
13593;BME280;6867;50.998;4.250;2023-06-10T05:18:45;100995.31;;;22.32;60.26
13593;BME280;6867;50.998;4.250;2023-06-10T05:21:13;101008.66;;;22.49;60.13
13593;BME280;6867;50.998;4.250;2023-06-10T05:23:40;100998.75;;;22.63;59.63
13593;BME280;6867;50.998;4.250;2023-06-10T05:26:07;101000.66;;;22.62;59.49
13593;BME280;6867;50.998;4.250;2023-06-10T05:28:34;100981.22;;;22.64;59.14
13593;BME280;6867;50.998;4.250;2023-06-10T05:31:01;100974.00;;;22.78;58.44
13593;BME280;6867;50.998;4.250;2023-06-10T05:33:28;100970.16;;;22.79;57.84
13593;BME280;6867;50.998;4.250;2023-06-10T05:35:54;100970.06;;;22.95;57.59
13593;BME280;6867;50.998;4.250;2023-06-10T05:38:22;100977.94;;;23.06;57.64
13593;BME280;6867;50.998;4.250;2023-06-10T05:40:49;100976.19;;;23.16;57.55
13593;BME280;6867;50.998;4.250;2023-06-10T05:43:16;100948.22;;;23.19;56.60
13593;BME280;6867;50.998;4.250;2023-06-10T05:45:43;100982.78;;;23.15;57.08
13593;BME280;6867;50.998;4.250;2023-06-10T05:48:09;100960.63;;;23.11;56.68
13593;BME280;6867;50.998;4.250;2023-06-10T05:50:36;100994.44;;;23.30;57.16
13593;BME280;6867;50.998;4.250;2023-06-10T05:53:05;100970.91;;;23.29;56.43
13593;BME280;6867;50.998;4.250;2023-06-10T05:55:34;100985.34;;;23.35;56.81
13593;BME280;6867;50.998;4.250;2023-06-10T05:58:01;100980.00;;;23.54;56.40
13593;BME280;6867;50.998;4.250;2023-06-10T06:00:28;100966.03;;;23.21;56.28
13593;BME280;6867;50.998;4.250;2023-06-10T06:02:55;100972.63;;;23.49;55.99
13593;BME280;6867;50.998;4.250;2023-06-10T06:05:22;100959.75;;;23.50;55.82
13593;BME280;6867;50.998;4.250;2023-06-10T06:07:49;100971.09;;;23.38;55.94
13593;BME280;6867;50.998;4.250;2023-06-10T06:10:17;100955.78;;;23.32;55.31
13593;BME280;6867;50.998;4.250;2023-06-10T06:12:45;100971.09;;;23.38;55.86
13593;BME280;6867;50.998;4.250;2023-06-10T06:15:11;100948.22;;;23.48;54.71
13593;BME280;6867;50.998;4.250;2023-06-10T06:17:38;100952.91;;;23.76;54.53
13593;BME280;6867;50.998;4.250;2023-06-10T06:20:06;100942.03;;;23.90;54.11
13593;BME280;6867;50.998;4.250;2023-06-10T06:22:33;100957.69;;;23.90;54.51
13593;BME280;6867;50.998;4.250;2023-06-10T06:25:00;100954.69;;;23.86;54.45
13593;BME280;6867;50.998;4.250;2023-06-10T06:27:26;100955.00;;;23.84;54.15
13593;BME280;6867;50.998;4.250;2023-06-10T06:29:54;100952.31;;;23.79;54.01
13593;BME280;6867;50.998;4.250;2023-06-10T06:32:21;100938.47;;;24.14;53.33
13593;BME280;6867;50.998;4.250;2023-06-10T06:34:48;100941.13;;;24.43;52.67
13593;BME280;6867;50.998;4.250;2023-06-10T06:37:19;100968.06;;;24.35;53.28
13593;BME280;6867;50.998;4.250;2023-06-10T06:39:46;100949.00;;;24.25;52.71
13593;BME280;6867;50.998;4.250;2023-06-10T06:42:13;100948.22;;;24.01;53.13
13593;BME280;6867;50.998;4.250;2023-06-10T06:44:39;100955.25;;;24.31;52.62
13593;BME280;6867;50.998;4.250;2023-06-10T06:47:08;100935.91;;;24.60;52.02
13593;BME280;6867;50.998;4.250;2023-06-10T06:49:34;100952.22;;;24.70;51.71
13593;BME280;6867;50.998;4.250;2023-06-10T06:52:02;100928.25;;;24.57;51.68
13593;BME280;6867;50.998;4.250;2023-06-10T06:54:29;100945.03;;;24.55;51.75
13593;BME280;6867;50.998;4.250;2023-06-10T06:56:55;100951.19;;;24.66;52.10
13593;BME280;6867;50.998;4.250;2023-06-10T06:59:22;100950.97;;;24.81;51.41
13593;BME280;6867;50.998;4.250;2023-06-10T07:01:51;100940.16;;;25.04;51.13
13593;BME280;6867;50.998;4.250;2023-06-10T07:04:20;100958.38;;;25.00;51.71
13593;BME280;6867;50.998;4.250;2023-06-10T07:06:48;100963.41;;;25.12;51.34
13593;BME280;6867;50.998;4.250;2023-06-10T07:09:14;100971.94;;;24.91;51.68
13593;BME280;6867;50.998;4.250;2023-06-10T07:11:41;100976.06;;;25.13;52.24
13593;BME280;6867;50.998;4.250;2023-06-10T07:14:08;100949.28;;;25.18;51.37
13593;BME280;6867;50.998;4.250;2023-06-10T07:16:34;100941.06;;;25.32;51.00
13593;BME280;6867;50.998;4.250;2023-06-10T07:19:01;100936.63;;;25.50;50.16
13593;BME280;6867;50.998;4.250;2023-06-10T07:21:30;100918.41;;;25.68;49.77
13593;BME280;6867;50.998;4.250;2023-06-10T07:23:58;100908.63;;;25.75;49.46
13593;BME280;6867;50.998;4.250;2023-06-10T07:26:24;100932.19;;;26.09;49.35
13593;BME280;6867;50.998;4.250;2023-06-10T07:28:51;100927.69;;;26.63;48.25
13593;BME280;6867;50.998;4.250;2023-06-10T07:31:18;100887.25;;;27.03;47.00
13593;BME280;6867;50.998;4.250;2023-06-10T07:33:44;100899.06;;;27.58;46.50
13593;BME280;6867;50.998;4.250;2023-06-10T07:36:12;100862.19;;;27.93;45.00
13593;BME280;6867;50.998;4.250;2023-06-10T07:38:40;100844.81;;;28.62;43.80
13593;BME280;6867;50.998;4.250;2023-06-10T07:41:07;100808.69;;;28.85;41.91
13593;BME280;6867;50.998;4.250;2023-06-10T07:43:34;100825.09;;;28.90;42.72
13593;BME280;6867;50.998;4.250;2023-06-10T07:46:01;100841.31;;;29.47;41.42
13593;BME280;6867;50.998;4.250;2023-06-10T07:48:27;100808.69;;;28.76;41.77
13593;BME280;6867;50.998;4.250;2023-06-10T07:50:54;100813.31;;;29.57;40.41
13593;BME280;6867;50.998;4.250;2023-06-10T07:53:21;100840.34;;;29.04;41.30
13593;BME280;6867;50.998;4.250;2023-06-10T07:55:49;100820.28;;;29.54;40.47
13593;BME280;6867;50.998;4.250;2023-06-10T07:58:15;100806.19;;;29.77;39.62
13593;BME280;6867;50.998;4.250;2023-06-10T08:00:42;100788.22;;;30.25;38.70
13593;BME280;6867;50.998;4.250;2023-06-10T08:03:09;100809.84;;;30.32;39.11
13593;BME280;6867;50.998;4.250;2023-06-10T08:05:35;100783.41;;;30.13;38.96
13593;BME280;6867;50.998;4.250;2023-06-10T08:08:02;100791.41;;;30.93;37.87
13593;BME280;6867;50.998;4.250;2023-06-10T08:10:29;100794.34;;;31.46;37.33
13593;BME280;6867;50.998;4.250;2023-06-10T08:12:57;100792.13;;;31.64;36.75
13593;BME280;6867;50.998;4.250;2023-06-10T08:15:24;100788.19;;;32.17;35.93
13593;BME280;6867;50.998;4.250;2023-06-10T08:17:50;100782.72;;;31.81;36.13
13593;BME280;6867;50.998;4.250;2023-06-10T08:20:18;100778.41;;;31.43;36.18
13593;BME280;6867;50.998;4.250;2023-06-10T08:22:44;100763.69;;;30.81;36.46
13593;BME280;6867;50.998;4.250;2023-06-10T08:25:11;100820.34;;;31.05;37.51
13593;BME280;6867;50.998;4.250;2023-06-10T08:27:37;100785.97;;;30.51;36.91
13593;BME280;6867;50.998;4.250;2023-06-10T08:30:07;100757.94;;;31.23;35.65
13593;BME280;6867;50.998;4.250;2023-06-10T08:32:36;100765.69;;;30.47;36.81
13593;BME280;6867;50.998;4.250;2023-06-10T08:35:03;100808.22;;;31.21;36.58
13593;BME280;6867;50.998;4.250;2023-06-10T08:37:30;100791.81;;;31.29;36.35
13593;BME280;6867;50.998;4.250;2023-06-10T08:39:56;100809.28;;;31.54;36.41
13593;BME280;6867;50.998;4.250;2023-06-10T08:42:28;100769.78;;;31.85;35.17
13593;BME280;6867;50.998;4.250;2023-06-10T08:44:56;100735.81;;;32.32;33.39
13593;BME280;6867;50.998;4.250;2023-06-10T08:47:25;100743.03;;;31.92;34.24
13593;BME280;6867;50.998;4.250;2023-06-10T08:49:56;100782.53;;;31.73;34.87
13593;BME280;6867;50.998;4.250;2023-06-10T08:52:29;100827.34;;;32.12;35.73
13593;BME280;6867;50.998;4.250;2023-06-10T08:55:04;100775.06;;;32.90;33.48
13593;BME280;6867;50.998;4.250;2023-06-10T08:57:31;100742.78;;;33.01;32.45
13593;BME280;6867;50.998;4.250;2023-06-10T08:59:58;100759.88;;;33.19;32.45
13593;BME280;6867;50.998;4.250;2023-06-10T09:02:27;100757.41;;;32.98;32.57
13593;BME280;6867;50.998;4.250;2023-06-10T09:04:55;100793.19;;;32.84;33.51
13593;BME280;6867;50.998;4.250;2023-06-10T09:07:22;100761.34;;;32.37;32.86
13593;BME280;6867;50.998;4.250;2023-06-10T09:09:50;100732.53;;;33.56;31.10
13593;BME280;6867;50.998;4.250;2023-06-10T09:12:19;100766.88;;;33.80;31.38
13593;BME280;6867;50.998;4.250;2023-06-10T09:14:45;100794.06;;;32.72;33.21
13593;BME280;6867;50.998;4.250;2023-06-10T09:17:12;100767.94;;;33.40;31.30
13593;BME280;6867;50.998;4.250;2023-06-10T09:19:41;100800.28;;;32.65;32.93
13593;BME280;6867;50.998;4.250;2023-06-10T09:22:09;100792.69;;;33.10;31.93
13593;BME280;6867;50.998;4.250;2023-06-10T09:24:36;100749.88;;;33.65;30.78
13593;BME280;6867;50.998;4.250;2023-06-10T09:27:03;100752.09;;;33.09;31.42
13593;BME280;6867;50.998;4.250;2023-06-10T09:29:30;100767.00;;;33.01;31.26
13593;BME280;6867;50.998;4.250;2023-06-10T09:31:57;100792.91;;;32.73;31.97
13593;BME280;6867;50.998;4.250;2023-06-10T09:34:25;100762.69;;;33.19;30.34
13593;BME280;6867;50.998;4.250;2023-06-10T09:36:53;100753.28;;;32.32;31.74
13593;BME280;6867;50.998;4.250;2023-06-10T09:39:21;100798.44;;;32.41;32.43
13593;BME280;6867;50.998;4.250;2023-06-10T09:41:48;100749.19;;;31.86;31.88
13593;BME280;6867;50.998;4.250;2023-06-10T09:44:16;100764.38;;;31.52;32.41
13593;BME280;6867;50.998;4.250;2023-06-10T09:46:44;100808.34;;;31.49;33.68
13593;BME280;6867;50.998;4.250;2023-06-10T09:49:11;100815.38;;;31.71;33.37
13593;BME280;6867;50.998;4.250;2023-06-10T09:51:49;100795.16;;;31.34;34.19
13593;BME280;6867;50.998;4.250;2023-06-10T09:54:17;100821.53;;;31.40;34.41
13593;BME280;6867;50.998;4.250;2023-06-10T09:56:47;100807.56;;;31.37;33.97
13593;BME280;6867;50.998;4.250;2023-06-10T09:59:13;100768.41;;;31.66;32.67
13593;BME280;6867;50.998;4.250;2023-06-10T10:01:40;100762.22;;;31.45;32.58
13593;BME280;6867;50.998;4.250;2023-06-10T10:04:07;100771.25;;;31.30;32.89
13593;BME280;6867;50.998;4.250;2023-06-10T10:06:34;100765.28;;;31.68;32.55
13593;BME280;6867;50.998;4.250;2023-06-10T10:09:01;100761.75;;;31.31;32.92
13593;BME280;6867;50.998;4.250;2023-06-10T10:11:31;100778.09;;;31.85;32.31
13593;BME280;6867;50.998;4.250;2023-06-10T10:14:00;100767.47;;;31.74;32.47
13593;BME280;6867;50.998;4.250;2023-06-10T10:16:35;100754.97;;;31.68;31.96
13593;BME280;6867;50.998;4.250;2023-06-10T10:19:07;100756.44;;;32.03;31.77
13593;BME280;6867;50.998;4.250;2023-06-10T10:21:42;100742.28;;;32.08;31.21
13593;BME280;6867;50.998;4.250;2023-06-10T10:24:15;100811.59;;;32.16;32.78
13593;BME280;6867;50.998;4.250;2023-06-10T10:26:46;100778.59;;;32.15;32.22
13593;BME280;6867;50.998;4.250;2023-06-10T10:29:18;100773.44;;;32.29;31.73
13593;BME280;6867;50.998;4.250;2023-06-10T10:31:48;100753.56;;;32.43;31.18
13593;BME280;6867;50.998;4.250;2023-06-10T10:34:19;100753.53;;;32.71;30.97
13593;BME280;6867;50.998;4.250;2023-06-10T10:36:48;100704.44;;;32.47;29.73
13593;BME280;6867;50.998;4.250;2023-06-10T10:39:16;100726.03;;;32.38;30.19
13593;BME280;6867;50.998;4.250;2023-06-10T10:41:44;100730.19;;;32.76;29.90
13593;BME280;6867;50.998;4.250;2023-06-10T10:44:11;100710.00;;;32.47;29.68
13593;BME280;6867;50.998;4.250;2023-06-10T10:46:42;100687.88;;;32.66;29.27
13593;BME280;6867;50.998;4.250;2023-06-10T10:49:10;100721.84;;;32.76;29.65
13593;BME280;6867;50.998;4.250;2023-06-10T10:51:54;100746.63;;;33.12;29.74
13593;BME280;6867;50.998;4.250;2023-06-10T10:54:28;100718.88;;;32.84;29.98
13593;BME280;6867;50.998;4.250;2023-06-10T10:57:12;100703.47;;;32.71;29.60
13593;BME280;6867;50.998;4.250;2023-06-10T10:59:53;100700.03;;;33.09;28.80
13593;BME280;6867;50.998;4.250;2023-06-10T11:02:35;100671.66;;;33.55;27.73
13593;BME280;6867;50.998;4.250;2023-06-10T11:05:04;100731.03;;;33.43;29.00
13593;BME280;6867;50.998;4.250;2023-06-10T11:07:32;100676.66;;;33.30;28.26
13593;BME280;6867;50.998;4.250;2023-06-10T11:09:59;100689.63;;;33.41;28.37
13593;BME280;6867;50.998;4.250;2023-06-10T11:12:42;100681.50;;;33.33;28.30
13593;BME280;6867;50.998;4.250;2023-06-10T11:15:18;100692.41;;;33.57;27.94
13593;BME280;6867;50.998;4.250;2023-06-10T11:18:19;100690.69;;;33.72;28.03
13593;BME280;6867;50.998;4.250;2023-06-10T11:20:55;100743.69;;;33.76;29.70
13593;BME280;6867;50.998;4.250;2023-06-10T11:23:37;100669.91;;;33.66;27.70
13593;BME280;6867;50.998;4.250;2023-06-10T11:26:29;100675.38;;;33.82;28.07
13593;BME280;6867;50.998;4.250;2023-06-10T11:29:10;100610.69;;;33.50;26.36
13593;BME280;6867;50.998;4.250;2023-06-10T11:31:49;100606.34;;;33.33;26.50
13593;BME280;6867;50.998;4.250;2023-06-10T11:34:21;100623.13;;;33.56;26.47
13593;BME280;6867;50.998;4.250;2023-06-10T11:36:51;100651.47;;;33.42;26.96
13593;BME280;6867;50.998;4.250;2023-06-10T11:39:19;100610.88;;;33.41;26.21
13593;BME280;6867;50.998;4.250;2023-06-10T11:41:46;100625.09;;;33.55;26.27
13593;BME280;6867;50.998;4.250;2023-06-10T11:44:14;100622.63;;;33.50;26.20
13593;BME280;6867;50.998;4.250;2023-06-10T11:46:41;100636.91;;;33.68;26.43
13593;BME280;6867;50.998;4.250;2023-06-10T11:49:09;100634.25;;;33.36;26.56
13593;BME280;6867;50.998;4.250;2023-06-10T11:51:36;100687.56;;;33.54;27.83
13593;BME280;6867;50.998;4.250;2023-06-10T11:54:04;100667.69;;;33.94;26.98
13593;BME280;6867;50.998;4.250;2023-06-10T11:56:31;100627.88;;;33.75;26.46
13593;BME280;6867;50.998;4.250;2023-06-10T11:58:59;100672.19;;;34.22;26.23
13593;BME280;6867;50.998;4.250;2023-06-10T12:01:32;100635.19;;;34.02;26.14
13593;BME280;6867;50.998;4.250;2023-06-10T12:04:00;100656.38;;;33.87;27.29
13593;BME280;6867;50.998;4.250;2023-06-10T12:06:28;100652.72;;;33.83;27.44
13593;BME280;6867;50.998;4.250;2023-06-10T12:09:04;100641.59;;;34.26;25.80
13593;BME280;6867;50.998;4.250;2023-06-10T12:11:31;100668.22;;;34.69;26.48
13593;BME280;6867;50.998;4.250;2023-06-10T12:13:57;100655.13;;;34.73;25.72
13593;BME280;6867;50.998;4.250;2023-06-10T12:16:24;100629.56;;;34.67;25.70
13593;BME280;6867;50.998;4.250;2023-06-10T12:19:01;100617.00;;;34.54;25.45
13593;BME280;6867;50.998;4.250;2023-06-10T12:21:28;100655.03;;;34.66;25.94
13593;BME280;6867;50.998;4.250;2023-06-10T12:24:08;100632.66;;;34.62;25.24
13593;BME280;6867;50.998;4.250;2023-06-10T12:26:39;100597.13;;;34.33;24.83
13593;BME280;6867;50.998;4.250;2023-06-10T12:29:19;100607.84;;;34.54;24.70
13593;BME280;6867;50.998;4.250;2023-06-10T12:31:58;100603.25;;;34.68;24.49
13593;BME280;6867;50.998;4.250;2023-06-10T12:34:35;100614.56;;;34.53;24.83
13593;BME280;6867;50.998;4.250;2023-06-10T12:37:03;100603.44;;;34.30;24.82
13593;BME280;6867;50.998;4.250;2023-06-10T12:39:31;100624.81;;;34.45;25.46
13593;BME280;6867;50.998;4.250;2023-06-10T12:41:58;100593.38;;;34.02;24.68
13593;BME280;6867;50.998;4.250;2023-06-10T12:44:32;100639.91;;;34.44;25.49
13593;BME280;6867;50.998;4.250;2023-06-10T12:46:59;100636.19;;;34.86;24.69
13593;BME280;6867;50.998;4.250;2023-06-10T12:49:26;100664.97;;;34.90;25.34
13593;BME280;6867;50.998;4.250;2023-06-10T12:51:55;100607.94;;;34.61;24.79
13593;BME280;6867;50.998;4.250;2023-06-10T12:54:21;100620.72;;;34.62;25.09
13593;BME280;6867;50.998;4.250;2023-06-10T12:56:48;100634.75;;;34.69;25.75
13593;BME280;6867;50.998;4.250;2023-06-10T12:59:15;100602.34;;;34.87;24.50
13593;BME280;6867;50.998;4.250;2023-06-10T13:01:42;100665.28;;;35.38;25.49
13593;BME280;6867;50.998;4.250;2023-06-10T13:04:09;100608.63;;;35.37;24.00
13593;BME280;6867;50.998;4.250;2023-06-10T13:06:37;100673.22;;;35.62;25.28